sensor_id;sensor_type;location;lat;lon;timestamp;temperature;humidity
16627;DHT22;8427;52.204;7.202;2023-07-13T00:01:19;16.70;71.70
16627;DHT22;8427;52.204;7.202;2023-07-13T00:03:47;16.70;72.10
16627;DHT22;8427;52.204;7.202;2023-07-13T00:06:15;16.60;73.10
16627;DHT22;8427;52.204;7.202;2023-07-13T00:08:43;16.50;73.60
16627;DHT22;8427;52.204;7.202;2023-07-13T00:11:11;16.40;74.00
16627;DHT22;8427;52.204;7.202;2023-07-13T00:13:39;16.50;74.70
16627;DHT22;8427;52.204;7.202;2023-07-13T00:16:07;16.30;75.10
16627;DHT22;8427;52.204;7.202;2023-07-13T00:18:37;16.30;75.40
16627;DHT22;8427;52.204;7.202;2023-07-13T00:21:05;16.20;76.10
16627;DHT22;8427;52.204;7.202;2023-07-13T00:23:33;16.10;76.10
16627;DHT22;8427;52.204;7.202;2023-07-13T00:26:02;16.20;76.10
16627;DHT22;8427;52.204;7.202;2023-07-13T00:28:30;16.10;76.30
16627;DHT22;8427;52.204;7.202;2023-07-13T00:30:58;16.10;76.40
16627;DHT22;8427;52.204;7.202;2023-07-13T00:33:26;16.00;76.70
16627;DHT22;8427;52.204;7.202;2023-07-13T00:35:56;15.90;76.80
16627;DHT22;8427;52.204;7.202;2023-07-13T00:38:24;16.00;77.00
16627;DHT22;8427;52.204;7.202;2023-07-13T00:40:51;15.80;77.50
16627;DHT22;8427;52.204;7.202;2023-07-13T00:43:22;15.80;77.70
16627;DHT22;8427;52.204;7.202;2023-07-13T00:48:35;15.70;78.20
16627;DHT22;8427;52.204;7.202;2023-07-13T00:51:06;15.60;78.20
16627;DHT22;8427;52.204;7.202;2023-07-13T00:53:34;15.60;78.40
16627;DHT22;8427;52.204;7.202;2023-07-13T00:56:02;15.50;78.30
16627;DHT22;8427;52.204;7.202;2023-07-13T00:58:31;15.50;78.40
16627;DHT22;8427;52.204;7.202;2023-07-13T01:00:59;15.50;78.40
16627;DHT22;8427;52.204;7.202;2023-07-13T01:03:27;15.50;78.60
16627;DHT22;8427;52.204;7.202;2023-07-13T01:05:56;15.40;78.70
16627;DHT22;8427;52.204;7.202;2023-07-13T01:08:25;15.40;78.90
16627;DHT22;8427;52.204;7.202;2023-07-13T01:10:55;15.40;78.60
16627;DHT22;8427;52.204;7.202;2023-07-13T01:13:24;15.50;78.80
16627;DHT22;8427;52.204;7.202;2023-07-13T01:16:03;15.50;78.60
16627;DHT22;8427;52.204;7.202;2023-07-13T01:18:35;15.50;78.70
16627;DHT22;8427;52.204;7.202;2023-07-13T01:21:05;15.50;78.80
16627;DHT22;8427;52.204;7.202;2023-07-13T01:23:33;15.50;78.80
16627;DHT22;8427;52.204;7.202;2023-07-13T01:26:01;15.60;78.80
16627;DHT22;8427;52.204;7.202;2023-07-13T01:28:29;15.50;78.70
16627;DHT22;8427;52.204;7.202;2023-07-13T01:30:58;15.60;78.60
16627;DHT22;8427;52.204;7.202;2023-07-13T01:33:26;15.50;78.70
16627;DHT22;8427;52.204;7.202;2023-07-13T01:35:54;15.40;78.80
16627;DHT22;8427;52.204;7.202;2023-07-13T01:38:25;15.40;78.80
16627;DHT22;8427;52.204;7.202;2023-07-13T01:40:54;15.40;78.90
16627;DHT22;8427;52.204;7.202;2023-07-13T01:43:22;15.40;78.80
16627;DHT22;8427;52.204;7.202;2023-07-13T01:45:49;15.40;79.20
16627;DHT22;8427;52.204;7.202;2023-07-13T01:48:18;15.40;79.00
16627;DHT22;8427;52.204;7.202;2023-07-13T01:50:48;15.40;79.00
16627;DHT22;8427;52.204;7.202;2023-07-13T01:53:16;15.30;79.00
16627;DHT22;8427;52.204;7.202;2023-07-13T01:55:45;15.30;79.10
16627;DHT22;8427;52.204;7.202;2023-07-13T01:58:13;15.30;79.40
16627;DHT22;8427;52.204;7.202;2023-07-13T02:00:41;15.30;79.30
16627;DHT22;8427;52.204;7.202;2023-07-13T02:03:09;15.20;79.20
16627;DHT22;8427;52.204;7.202;2023-07-13T02:05:37;15.30;79.50
16627;DHT22;8427;52.204;7.202;2023-07-13T02:08:05;15.20;79.40
16627;DHT22;8427;52.204;7.202;2023-07-13T02:10:33;15.10;79.50
16627;DHT22;8427;52.204;7.202;2023-07-13T02:13:04;15.10;79.90
16627;DHT22;8427;52.204;7.202;2023-07-13T02:15:32;15.10;79.60
16627;DHT22;8427;52.204;7.202;2023-07-13T02:18:00;15.10;79.50
16627;DHT22;8427;52.204;7.202;2023-07-13T02:20:28;15.00;79.50
16627;DHT22;8427;52.204;7.202;2023-07-13T02:22:55;15.00;79.50
16627;DHT22;8427;52.204;7.202;2023-07-13T02:25:24;15.10;79.60
16627;DHT22;8427;52.204;7.202;2023-07-13T02:27:53;15.10;79.70
16627;DHT22;8427;52.204;7.202;2023-07-13T02:30:22;15.10;79.60
16627;DHT22;8427;52.204;7.202;2023-07-13T02:32:51;15.00;79.90
16627;DHT22;8427;52.204;7.202;2023-07-13T02:35:19;15.00;80.00
16627;DHT22;8427;52.204;7.202;2023-07-13T02:37:47;14.90;80.10
16627;DHT22;8427;52.204;7.202;2023-07-13T02:40:15;15.00;79.80
16627;DHT22;8427;52.204;7.202;2023-07-13T02:42:43;14.90;79.70
16627;DHT22;8427;52.204;7.202;2023-07-13T02:45:11;15.00;79.60
16627;DHT22;8427;52.204;7.202;2023-07-13T02:47:42;14.90;80.00
16627;DHT22;8427;52.204;7.202;2023-07-13T02:50:10;14.90;79.70
16627;DHT22;8427;52.204;7.202;2023-07-13T02:52:38;14.90;79.80
16627;DHT22;8427;52.204;7.202;2023-07-13T02:55:06;14.80;80.00
16627;DHT22;8427;52.204;7.202;2023-07-13T02:57:34;14.90;79.90
16627;DHT22;8427;52.204;7.202;2023-07-13T03:00:03;14.90;79.70
16627;DHT22;8427;52.204;7.202;2023-07-13T03:02:33;14.80;79.80
16627;DHT22;8427;52.204;7.202;2023-07-13T03:05:04;14.80;79.90
16627;DHT22;8427;52.204;7.202;2023-07-13T03:07:32;14.80;79.70
16627;DHT22;8427;52.204;7.202;2023-07-13T03:10:00;14.90;79.90
16627;DHT22;8427;52.204;7.202;2023-07-13T03:12:28;14.80;80.10
16627;DHT22;8427;52.204;7.202;2023-07-13T03:14:57;14.80;80.00
16627;DHT22;8427;52.204;7.202;2023-07-13T03:17:25;14.80;80.00
16627;DHT22;8427;52.204;7.202;2023-07-13T03:19:53;14.70;80.20
16627;DHT22;8427;52.204;7.202;2023-07-13T03:22:23;14.80;79.90
16627;DHT22;8427;52.204;7.202;2023-07-13T03:24:51;14.70;79.70
16627;DHT22;8427;52.204;7.202;2023-07-13T03:27:19;14.70;80.10
16627;DHT22;8427;52.204;7.202;2023-07-13T03:29:47;14.80;79.70
16627;DHT22;8427;52.204;7.202;2023-07-13T03:32:15;14.80;79.80
16627;DHT22;8427;52.204;7.202;2023-07-13T03:34:43;14.80;79.60
16627;DHT22;8427;52.204;7.202;2023-07-13T03:37:10;14.80;79.60
16627;DHT22;8427;52.204;7.202;2023-07-13T03:39:40;14.90;79.50
16627;DHT22;8427;52.204;7.202;2023-07-13T03:42:08;14.90;79.40
16627;DHT22;8427;52.204;7.202;2023-07-13T03:44:36;15.00;79.50
16627;DHT22;8427;52.204;7.202;2023-07-13T03:47:04;15.10;79.30
16627;DHT22;8427;52.204;7.202;2023-07-13T03:49:35;15.00;79.10
16627;DHT22;8427;52.204;7.202;2023-07-13T03:52:04;15.20;79.20
16627;DHT22;8427;52.204;7.202;2023-07-13T03:54:32;15.10;79.10
16627;DHT22;8427;52.204;7.202;2023-07-13T03:57:01;15.30;78.80
16627;DHT22;8427;52.204;7.202;2023-07-13T03:59:29;15.30;78.50
16627;DHT22;8427;52.204;7.202;2023-07-13T04:01:57;15.40;78.70
16627;DHT22;8427;52.204;7.202;2023-07-13T04:04:25;15.40;78.20
16627;DHT22;8427;52.204;7.202;2023-07-13T04:06:53;15.50;78.20
16627;DHT22;8427;52.204;7.202;2023-07-13T04:09:21;15.50;77.80
16627;DHT22;8427;52.204;7.202;2023-07-13T04:11:49;15.60;77.70
16627;DHT22;8427;52.204;7.202;2023-07-13T04:14:19;15.60;78.10
16627;DHT22;8427;52.204;7.202;2023-07-13T04:16:47;15.60;78.10
16627;DHT22;8427;52.204;7.202;2023-07-13T04:19:15;15.70;77.90
16627;DHT22;8427;52.204;7.202;2023-07-13T04:21:43;15.70;78.00
16627;DHT22;8427;52.204;7.202;2023-07-13T04:24:12;15.80;77.90
16627;DHT22;8427;52.204;7.202;2023-07-13T04:26:40;15.80;77.50
16627;DHT22;8427;52.204;7.202;2023-07-13T04:29:08;15.90;77.50
16627;DHT22;8427;52.204;7.202;2023-07-13T04:31:37;15.90;77.30
16627;DHT22;8427;52.204;7.202;2023-07-13T04:34:05;15.80;77.30
16627;DHT22;8427;52.204;7.202;2023-07-13T04:36:33;15.90;77.60
16627;DHT22;8427;52.204;7.202;2023-07-13T04:39:04;16.10;77.20
16627;DHT22;8427;52.204;7.202;2023-07-13T04:41:32;16.20;76.90
16627;DHT22;8427;52.204;7.202;2023-07-13T04:44:00;16.20;76.40
16627;DHT22;8427;52.204;7.202;2023-07-13T04:46:29;16.20;76.70
16627;DHT22;8427;52.204;7.202;2023-07-13T04:48:59;16.20;76.60
16627;DHT22;8427;52.204;7.202;2023-07-13T04:51:27;16.20;76.40
16627;DHT22;8427;52.204;7.202;2023-07-13T04:53:55;16.20;76.40
16627;DHT22;8427;52.204;7.202;2023-07-13T04:56:27;16.30;76.30
16627;DHT22;8427;52.204;7.202;2023-07-13T04:58:55;16.30;76.40
16627;DHT22;8427;52.204;7.202;2023-07-13T05:01:25;16.40;76.30
16627;DHT22;8427;52.204;7.202;2023-07-13T05:03:53;16.40;76.30
16627;DHT22;8427;52.204;7.202;2023-07-13T05:06:25;16.40;76.10
16627;DHT22;8427;52.204;7.202;2023-07-13T05:08:53;16.40;76.40
16627;DHT22;8427;52.204;7.202;2023-07-13T05:11:21;16.40;76.20
16627;DHT22;8427;52.204;7.202;2023-07-13T05:13:49;16.50;76.30
16627;DHT22;8427;52.204;7.202;2023-07-13T05:16:18;16.50;76.20
16627;DHT22;8427;52.204;7.202;2023-07-13T05:18:47;16.60;75.90
16627;DHT22;8427;52.204;7.202;2023-07-13T05:21:15;16.60;75.90
16627;DHT22;8427;52.204;7.202;2023-07-13T05:23:44;16.70;76.10
16627;DHT22;8427;52.204;7.202;2023-07-13T05:26:12;16.60;76.10
16627;DHT22;8427;52.204;7.202;2023-07-13T05:28:40;16.80;76.20
16627;DHT22;8427;52.204;7.202;2023-07-13T05:31:09;16.90;75.70
16627;DHT22;8427;52.204;7.202;2023-07-13T05:33:38;16.90;75.30
16627;DHT22;8427;52.204;7.202;2023-07-13T05:36:06;17.00;75.10
16627;DHT22;8427;52.204;7.202;2023-07-13T05:38:35;17.10;75.60
16627;DHT22;8427;52.204;7.202;2023-07-13T05:41:04;17.10;75.20
16627;DHT22;8427;52.204;7.202;2023-07-13T05:43:32;17.20;75.10
16627;DHT22;8427;52.204;7.202;2023-07-13T05:46:00;17.30;74.70
16627;DHT22;8427;52.204;7.202;2023-07-13T05:48:28;17.30;74.40
16627;DHT22;8427;52.204;7.202;2023-07-13T05:50:56;17.30;75.10
16627;DHT22;8427;52.204;7.202;2023-07-13T05:53:24;17.40;74.80
16627;DHT22;8427;52.204;7.202;2023-07-13T05:55:54;17.40;74.70
16627;DHT22;8427;52.204;7.202;2023-07-13T05:58:26;17.70;74.10
16627;DHT22;8427;52.204;7.202;2023-07-13T06:00:59;17.70;74.00
16627;DHT22;8427;52.204;7.202;2023-07-13T06:03:28;17.70;73.90
16627;DHT22;8427;52.204;7.202;2023-07-13T06:05:56;17.80;73.60
16627;DHT22;8427;52.204;7.202;2023-07-13T06:08:24;17.90;73.40
16627;DHT22;8427;52.204;7.202;2023-07-13T06:10:52;17.90;73.80
16627;DHT22;8427;52.204;7.202;2023-07-13T06:13:20;18.00;73.40
16627;DHT22;8427;52.204;7.202;2023-07-13T06:15:50;18.00;73.90
16627;DHT22;8427;52.204;7.202;2023-07-13T06:18:18;18.00;74.10
16627;DHT22;8427;52.204;7.202;2023-07-13T06:20:46;18.10;73.50
16627;DHT22;8427;52.204;7.202;2023-07-13T06:23:14;18.20;73.20
16627;DHT22;8427;52.204;7.202;2023-07-13T06:25:43;18.20;73.70
16627;DHT22;8427;52.204;7.202;2023-07-13T06:28:11;18.10;73.20
16627;DHT22;8427;52.204;7.202;2023-07-13T06:30:39;18.20;73.10
16627;DHT22;8427;52.204;7.202;2023-07-13T06:33:08;18.10;73.10
16627;DHT22;8427;52.204;7.202;2023-07-13T06:35:36;18.10;73.90
16627;DHT22;8427;52.204;7.202;2023-07-13T06:38:04;18.30;73.60
16627;DHT22;8427;52.204;7.202;2023-07-13T06:40:32;18.50;73.50
16627;DHT22;8427;52.204;7.202;2023-07-13T06:43:00;18.70;72.70
16627;DHT22;8427;52.204;7.202;2023-07-13T06:45:28;19.00;72.10
16627;DHT22;8427;52.204;7.202;2023-07-13T06:47:56;18.80;71.30
16627;DHT22;8427;52.204;7.202;2023-07-13T06:50:26;18.60;71.90
16627;DHT22;8427;52.204;7.202;2023-07-13T06:52:54;18.60;71.90
16627;DHT22;8427;52.204;7.202;2023-07-13T06:55:22;18.70;73.00
16627;DHT22;8427;52.204;7.202;2023-07-13T06:57:50;18.80;72.90
16627;DHT22;8427;52.204;7.202;2023-07-13T07:00:18;18.80;71.80
16627;DHT22;8427;52.204;7.202;2023-07-13T07:02:46;18.80;71.80
16627;DHT22;8427;52.204;7.202;2023-07-13T07:05:14;18.80;72.10
16627;DHT22;8427;52.204;7.202;2023-07-13T07:07:44;18.90;71.60
16627;DHT22;8427;52.204;7.202;2023-07-13T07:10:12;18.90;71.60
16627;DHT22;8427;52.204;7.202;2023-07-13T07:12:40;19.00;72.50
16627;DHT22;8427;52.204;7.202;2023-07-13T07:15:08;19.20;72.30
16627;DHT22;8427;52.204;7.202;2023-07-13T07:17:36;19.40;70.80
16627;DHT22;8427;52.204;7.202;2023-07-13T07:20:05;19.50;69.40
16627;DHT22;8427;52.204;7.202;2023-07-13T07:22:34;19.40;70.20
16627;DHT22;8427;52.204;7.202;2023-07-13T07:25:04;19.30;70.10
16627;DHT22;8427;52.204;7.202;2023-07-13T07:27:32;19.30;70.80
16627;DHT22;8427;52.204;7.202;2023-07-13T07:30:04;19.50;70.60
16627;DHT22;8427;52.204;7.202;2023-07-13T07:32:36;19.70;69.50
16627;DHT22;8427;52.204;7.202;2023-07-13T07:35:07;19.60;69.30
16627;DHT22;8427;52.204;7.202;2023-07-13T07:37:35;19.50;70.30
16627;DHT22;8427;52.204;7.202;2023-07-13T07:40:08;19.40;70.50
16627;DHT22;8427;52.204;7.202;2023-07-13T07:42:39;19.50;69.30
16627;DHT22;8427;52.204;7.202;2023-07-13T07:45:07;19.30;70.60
16627;DHT22;8427;52.204;7.202;2023-07-13T07:47:38;19.30;71.00
16627;DHT22;8427;52.204;7.202;2023-07-13T07:50:07;19.30;71.20
16627;DHT22;8427;52.204;7.202;2023-07-13T07:52:35;19.50;71.10
16627;DHT22;8427;52.204;7.202;2023-07-13T07:55:04;19.70;69.80
16627;DHT22;8427;52.204;7.202;2023-07-13T07:57:37;19.70;70.60
16627;DHT22;8427;52.204;7.202;2023-07-13T08:00:09;19.70;69.10
16627;DHT22;8427;52.204;7.202;2023-07-13T08:02:40;19.90;69.20
16627;DHT22;8427;52.204;7.202;2023-07-13T08:05:28;20.00;68.90
16627;DHT22;8427;52.204;7.202;2023-07-13T08:07:59;20.20;68.10
16627;DHT22;8427;52.204;7.202;2023-07-13T08:10:27;20.20;67.60
16627;DHT22;8427;52.204;7.202;2023-07-13T08:12:56;20.10;67.40
16627;DHT22;8427;52.204;7.202;2023-07-13T08:15:27;20.20;68.30
16627;DHT22;8427;52.204;7.202;2023-07-13T08:17:55;20.40;67.50
16627;DHT22;8427;52.204;7.202;2023-07-13T08:20:23;20.20;67.30
16627;DHT22;8427;52.204;7.202;2023-07-13T08:22:51;20.40;67.40
16627;DHT22;8427;52.204;7.202;2023-07-13T08:25:20;20.60;66.40
16627;DHT22;8427;52.204;7.202;2023-07-13T08:27:49;20.80;66.60
16627;DHT22;8427;52.204;7.202;2023-07-13T08:30:18;20.90;66.30
16627;DHT22;8427;52.204;7.202;2023-07-13T08:32:46;21.10;65.50
16627;DHT22;8427;52.204;7.202;2023-07-13T08:35:15;21.20;65.20
16627;DHT22;8427;52.204;7.202;2023-07-13T08:37:43;21.10;64.60
16627;DHT22;8427;52.204;7.202;2023-07-13T08:40:11;20.80;65.10
16627;DHT22;8427;52.204;7.202;2023-07-13T08:42:44;20.80;66.30
16627;DHT22;8427;52.204;7.202;2023-07-13T08:45:20;20.80;65.30
16627;DHT22;8427;52.204;7.202;2023-07-13T08:47:52;20.70;65.00
16627;DHT22;8427;52.204;7.202;2023-07-13T08:50:25;20.40;66.00
16627;DHT22;8427;52.204;7.202;2023-07-13T08:52:55;20.50;67.10
16627;DHT22;8427;52.204;7.202;2023-07-13T08:55:27;20.50;67.50
16627;DHT22;8427;52.204;7.202;2023-07-13T08:58:13;20.60;65.70
16627;DHT22;8427;52.204;7.202;2023-07-13T09:00:49;20.90;66.10
16627;DHT22;8427;52.204;7.202;2023-07-13T09:03:23;21.30;65.40
16627;DHT22;8427;52.204;7.202;2023-07-13T09:05:54;21.30;65.00
16627;DHT22;8427;52.204;7.202;2023-07-13T09:08:33;21.30;63.50
16627;DHT22;8427;52.204;7.202;2023-07-13T09:11:13;21.30;64.50
16627;DHT22;8427;52.204;7.202;2023-07-13T09:13:53;21.70;63.10
16627;DHT22;8427;52.204;7.202;2023-07-13T09:16:25;21.80;63.60
16627;DHT22;8427;52.204;7.202;2023-07-13T09:18:58;22.10;62.80
16627;DHT22;8427;52.204;7.202;2023-07-13T09:21:31;22.10;62.00
16627;DHT22;8427;52.204;7.202;2023-07-13T09:24:06;22.10;61.90
16627;DHT22;8427;52.204;7.202;2023-07-13T09:26:43;22.20;61.60
16627;DHT22;8427;52.204;7.202;2023-07-13T09:29:17;21.80;61.80
16627;DHT22;8427;52.204;7.202;2023-07-13T09:31:50;21.40;63.00
16627;DHT22;8427;52.204;7.202;2023-07-13T09:34:20;21.20;63.40
16627;DHT22;8427;52.204;7.202;2023-07-13T09:36:48;21.20;64.90
16627;DHT22;8427;52.204;7.202;2023-07-13T09:39:25;21.20;65.10
16627;DHT22;8427;52.204;7.202;2023-07-13T09:41:57;21.30;65.00
16627;DHT22;8427;52.204;7.202;2023-07-13T09:44:29;21.40;63.60
16627;DHT22;8427;52.204;7.202;2023-07-13T09:47:00;21.50;62.50
16627;DHT22;8427;52.204;7.202;2023-07-13T09:49:33;21.40;62.30
16627;DHT22;8427;52.204;7.202;2023-07-13T09:52:04;21.40;64.10
16627;DHT22;8427;52.204;7.202;2023-07-13T09:54:33;21.40;63.90
16627;DHT22;8427;52.204;7.202;2023-07-13T09:57:08;21.40;64.10
16627;DHT22;8427;52.204;7.202;2023-07-13T09:59:41;21.40;64.30
16627;DHT22;8427;52.204;7.202;2023-07-13T10:02:28;21.60;63.70
16627;DHT22;8427;52.204;7.202;2023-07-13T10:04:58;21.70;63.50
16627;DHT22;8427;52.204;7.202;2023-07-13T10:07:27;22.20;63.40
16627;DHT22;8427;52.204;7.202;2023-07-13T10:09:57;22.40;61.80
16627;DHT22;8427;52.204;7.202;2023-07-13T10:12:29;22.50;60.30
16627;DHT22;8427;52.204;7.202;2023-07-13T10:15:00;22.70;59.50
16627;DHT22;8427;52.204;7.202;2023-07-13T10:17:50;22.80;58.50
16627;DHT22;8427;52.204;7.202;2023-07-13T10:20:20;22.60;60.30
16627;DHT22;8427;52.204;7.202;2023-07-13T10:22:52;23.00;57.70
16627;DHT22;8427;52.204;7.202;2023-07-13T10:25:25;23.00;57.80
16627;DHT22;8427;52.204;7.202;2023-07-13T10:27:55;23.00;58.80
16627;DHT22;8427;52.204;7.202;2023-07-13T10:30:27;23.20;58.40
16627;DHT22;8427;52.204;7.202;2023-07-13T10:33:01;23.30;57.10
16627;DHT22;8427;52.204;7.202;2023-07-13T10:35:30;23.50;56.50
16627;DHT22;8427;52.204;7.202;2023-07-13T10:38:03;23.60;56.50
16627;DHT22;8427;52.204;7.202;2023-07-13T10:40:35;23.40;56.60
16627;DHT22;8427;52.204;7.202;2023-07-13T10:43:09;23.40;57.50
16627;DHT22;8427;52.204;7.202;2023-07-13T10:45:40;23.20;56.80
16627;DHT22;8427;52.204;7.202;2023-07-13T10:48:12;23.00;57.60
16627;DHT22;8427;52.204;7.202;2023-07-13T10:50:45;22.70;57.70
16627;DHT22;8427;52.204;7.202;2023-07-13T10:53:19;22.90;59.10
16627;DHT22;8427;52.204;7.202;2023-07-13T10:55:55;23.20;56.50
16627;DHT22;8427;52.204;7.202;2023-07-13T10:58:28;23.20;55.30
16627;DHT22;8427;52.204;7.202;2023-07-13T11:01:02;23.20;56.60
16627;DHT22;8427;52.204;7.202;2023-07-13T11:03:32;23.10;55.00
16627;DHT22;8427;52.204;7.202;2023-07-13T11:06:06;23.30;56.20
16627;DHT22;8427;52.204;7.202;2023-07-13T11:08:36;23.40;54.00
16627;DHT22;8427;52.204;7.202;2023-07-13T11:13:58;23.80;53.50
16627;DHT22;8427;52.204;7.202;2023-07-13T11:16:36;24.00;53.70
16627;DHT22;8427;52.204;7.202;2023-07-13T11:22:09;24.00;54.30
16627;DHT22;8427;52.204;7.202;2023-07-13T11:24:50;24.20;51.60
16627;DHT22;8427;52.204;7.202;2023-07-13T11:27:22;24.20;51.60
16627;DHT22;8427;52.204;7.202;2023-07-13T11:29:50;24.00;51.60
16627;DHT22;8427;52.204;7.202;2023-07-13T11:32:22;23.90;52.50
16627;DHT22;8427;52.204;7.202;2023-07-13T11:34:53;23.30;53.40
16627;DHT22;8427;52.204;7.202;2023-07-13T11:37:22;22.10;63.30
16627;DHT22;8427;52.204;7.202;2023-07-13T11:39:51;20.50;68.50
16627;DHT22;8427;52.204;7.202;2023-07-13T11:42:21;19.70;75.90
16627;DHT22;8427;52.204;7.202;2023-07-13T11:44:50;19.30;78.00
16627;DHT22;8427;52.204;7.202;2023-07-13T11:47:40;19.10;77.60
16627;DHT22;8427;52.204;7.202;2023-07-13T11:50:18;18.90;77.50
16627;DHT22;8427;52.204;7.202;2023-07-13T11:52:49;18.90;80.30
16627;DHT22;8427;52.204;7.202;2023-07-13T11:55:19;19.10;80.20
16627;DHT22;8427;52.204;7.202;2023-07-13T11:57:50;19.40;80.90
16627;DHT22;8427;52.204;7.202;2023-07-13T12:00:22;19.80;78.90
16627;DHT22;8427;52.204;7.202;2023-07-13T12:02:53;20.10;77.20
16627;DHT22;8427;52.204;7.202;2023-07-13T12:05:22;20.40;78.70
16627;DHT22;8427;52.204;7.202;2023-07-13T12:07:52;20.90;76.70
16627;DHT22;8427;52.204;7.202;2023-07-13T12:10:24;21.10;73.90
16627;DHT22;8427;52.204;7.202;2023-07-13T12:12:55;21.30;73.50
16627;DHT22;8427;52.204;7.202;2023-07-13T12:15:28;21.70;70.30
16627;DHT22;8427;52.204;7.202;2023-07-13T12:17:57;22.00;67.60
16627;DHT22;8427;52.204;7.202;2023-07-13T12:20:27;22.30;68.60
16627;DHT22;8427;52.204;7.202;2023-07-13T12:22:57;22.70;65.70
16627;DHT22;8427;52.204;7.202;2023-07-13T12:25:25;23.10;64.40
16627;DHT22;8427;52.204;7.202;2023-07-13T12:27:54;23.60;61.60
16627;DHT22;8427;52.204;7.202;2023-07-13T12:30:26;23.80;59.30
16627;DHT22;8427;52.204;7.202;2023-07-13T12:32:56;23.70;57.10
16627;DHT22;8427;52.204;7.202;2023-07-13T12:35:23;23.10;54.80
16627;DHT22;8427;52.204;7.202;2023-07-13T12:37:51;22.10;55.80
16627;DHT22;8427;52.204;7.202;2023-07-13T12:40:33;21.20;60.30
16627;DHT22;8427;52.204;7.202;2023-07-13T12:43:04;20.20;61.80
16627;DHT22;8427;52.204;7.202;2023-07-13T12:45:33;19.70;66.70
16627;DHT22;8427;52.204;7.202;2023-07-13T12:48:05;19.30;69.20
16627;DHT22;8427;52.204;7.202;2023-07-13T12:50:38;19.00;71.70
16627;DHT22;8427;52.204;7.202;2023-07-13T12:53:13;19.10;74.30
16627;DHT22;8427;52.204;7.202;2023-07-13T12:55:44;19.00;76.60
16627;DHT22;8427;52.204;7.202;2023-07-13T12:58:18;18.90;76.50
16627;DHT22;8427;52.204;7.202;2023-07-13T13:00:50;18.80;76.60
16627;DHT22;8427;52.204;7.202;2023-07-13T13:03:25;18.90;77.80
16627;DHT22;8427;52.204;7.202;2023-07-13T13:05:58;18.90;77.70
16627;DHT22;8427;52.204;7.202;2023-07-13T13:08:30;18.90;76.10
16627;DHT22;8427;52.204;7.202;2023-07-13T13:11:00;19.10;78.10
16627;DHT22;8427;52.204;7.202;2023-07-13T13:13:28;19.40;76.80
16627;DHT22;8427;52.204;7.202;2023-07-13T13:16:01;19.80;74.00
16627;DHT22;8427;52.204;7.202;2023-07-13T13:18:32;20.10;75.00
16627;DHT22;8427;52.204;7.202;2023-07-13T13:21:01;20.50;70.00
16627;DHT22;8427;52.204;7.202;2023-07-13T13:23:29;20.60;70.40
16627;DHT22;8427;52.204;7.202;2023-07-13T13:26:00;20.70;69.50
16627;DHT22;8427;52.204;7.202;2023-07-13T13:28:28;20.60;68.70
16627;DHT22;8427;52.204;7.202;2023-07-13T13:30:56;20.50;69.00
16627;DHT22;8427;52.204;7.202;2023-07-13T13:33:28;20.60;69.80
16627;DHT22;8427;52.204;7.202;2023-07-13T13:35:57;20.70;69.40
16627;DHT22;8427;52.204;7.202;2023-07-13T13:38:26;20.90;69.70
16627;DHT22;8427;52.204;7.202;2023-07-13T13:40:54;21.00;67.80
16627;DHT22;8427;52.204;7.202;2023-07-13T13:43:25;21.20;68.10
16627;DHT22;8427;52.204;7.202;2023-07-13T13:45:56;21.40;66.60
16627;DHT22;8427;52.204;7.202;2023-07-13T13:48:30;21.40;65.40
16627;DHT22;8427;52.204;7.202;2023-07-13T13:50:59;21.40;64.30
16627;DHT22;8427;52.204;7.202;2023-07-13T13:53:28;21.30;65.20
16627;DHT22;8427;52.204;7.202;2023-07-13T13:55:56;21.30;65.10
16627;DHT22;8427;52.204;7.202;2023-07-13T13:58:25;21.60;66.50
16627;DHT22;8427;52.204;7.202;2023-07-13T14:00:53;22.10;64.30
16627;DHT22;8427;52.204;7.202;2023-07-13T14:03:21;22.80;62.90
16627;DHT22;8427;52.204;7.202;2023-07-13T14:05:49;23.10;57.80
16627;DHT22;8427;52.204;7.202;2023-07-13T14:08:19;23.20;58.60
16627;DHT22;8427;52.204;7.202;2023-07-13T14:10:47;23.00;56.60
16627;DHT22;8427;52.204;7.202;2023-07-13T14:13:16;22.70;58.60
16627;DHT22;8427;52.204;7.202;2023-07-13T14:15:46;22.70;58.70
16627;DHT22;8427;52.204;7.202;2023-07-13T14:18:14;22.60;60.30
16627;DHT22;8427;52.204;7.202;2023-07-13T14:20:45;22.40;58.70
16627;DHT22;8427;52.204;7.202;2023-07-13T14:23:13;21.70;65.00
16627;DHT22;8427;52.204;7.202;2023-07-13T14:25:42;20.90;67.90
16627;DHT22;8427;52.204;7.202;2023-07-13T14:28:19;20.40;70.80
16627;DHT22;8427;52.204;7.202;2023-07-13T14:30:49;20.20;73.50
16627;DHT22;8427;52.204;7.202;2023-07-13T14:33:18;20.20;76.40
16627;DHT22;8427;52.204;7.202;2023-07-13T14:35:47;20.10;75.70
16627;DHT22;8427;52.204;7.202;2023-07-13T14:38:18;20.20;74.50
16627;DHT22;8427;52.204;7.202;2023-07-13T14:40:47;20.00;74.20
16627;DHT22;8427;52.204;7.202;2023-07-13T14:43:17;20.20;76.70
16627;DHT22;8427;52.204;7.202;2023-07-13T14:45:48;20.40;76.10
16627;DHT22;8427;52.204;7.202;2023-07-13T14:48:20;20.60;77.50
16627;DHT22;8427;52.204;7.202;2023-07-13T14:50:51;20.90;75.70
16627;DHT22;8427;52.204;7.202;2023-07-13T14:53:20;20.90;73.90
16627;DHT22;8427;52.204;7.202;2023-07-13T14:55:49;21.10;73.20
16627;DHT22;8427;52.204;7.202;2023-07-13T14:58:17;21.10;68.80
16627;DHT22;8427;52.204;7.202;2023-07-13T15:00:46;21.30;66.20
16627;DHT22;8427;52.204;7.202;2023-07-13T15:03:19;21.30;67.80
16627;DHT22;8427;52.204;7.202;2023-07-13T15:05:49;21.50;67.20
16627;DHT22;8427;52.204;7.202;2023-07-13T15:08:17;21.80;69.00
16627;DHT22;8427;52.204;7.202;2023-07-13T15:10:45;22.30;68.50
16627;DHT22;8427;52.204;7.202;2023-07-13T15:13:15;22.60;67.40
16627;DHT22;8427;52.204;7.202;2023-07-13T15:15:44;22.90;64.70
16627;DHT22;8427;52.204;7.202;2023-07-13T15:18:13;23.10;62.00
16627;DHT22;8427;52.204;7.202;2023-07-13T15:20:45;23.10;62.30
16627;DHT22;8427;52.204;7.202;2023-07-13T15:23:13;23.10;61.50
16627;DHT22;8427;52.204;7.202;2023-07-13T15:25:41;22.90;60.80
16627;DHT22;8427;52.204;7.202;2023-07-13T15:28:10;23.20;61.70
16627;DHT22;8427;52.204;7.202;2023-07-13T15:30:40;23.40;60.00
16627;DHT22;8427;52.204;7.202;2023-07-13T15:33:10;23.80;57.60
16627;DHT22;8427;52.204;7.202;2023-07-13T15:35:39;24.00;57.40
16627;DHT22;8427;52.204;7.202;2023-07-13T15:38:16;24.40;55.90
16627;DHT22;8427;52.204;7.202;2023-07-13T15:40:44;25.10;54.40
16627;DHT22;8427;52.204;7.202;2023-07-13T15:43:12;25.60;54.50
16627;DHT22;8427;52.204;7.202;2023-07-13T15:45:40;26.00;51.90
16627;DHT22;8427;52.204;7.202;2023-07-13T15:48:11;26.30;53.20
16627;DHT22;8427;52.204;7.202;2023-07-13T15:50:42;26.90;49.80
16627;DHT22;8427;52.204;7.202;2023-07-13T15:53:10;26.90;48.60
16627;DHT22;8427;52.204;7.202;2023-07-13T15:55:40;27.60;48.00
16627;DHT22;8427;52.204;7.202;2023-07-13T15:58:09;27.90;47.00
16627;DHT22;8427;52.204;7.202;2023-07-13T16:00:37;28.30;46.00
16627;DHT22;8427;52.204;7.202;2023-07-13T16:03:09;28.40;46.20
16627;DHT22;8427;52.204;7.202;2023-07-13T16:05:37;28.40;44.70
16627;DHT22;8427;52.204;7.202;2023-07-13T16:08:06;27.20;46.00
16627;DHT22;8427;52.204;7.202;2023-07-13T16:10:45;26.10;51.30